Time;durP1;ratioP1;P1;durP2;ratioP2;P2;SDS_P1;SDS_P2;PMS_P1;PMS_P2;Temp;Humidity;BMP_temperature;BMP_pressure;BME280_temperature;BME280_humidity;BME280_pressure;Samples;Min_cycle;Max_cycle;Signal;HPM_P1;HPM_P2
2021/07/23 00:00:49;;;;;;;4.03;3.20;;;21.80;65.70;;;;;;5090522;28;20074;-69
2021/07/23 00:03:15;;;;;;;4.65;3.60;;;21.80;65.70;;;;;;5089282;28;20040;-69
2021/07/23 00:05:41;;;;;;;4.03;3.60;;;21.80;65.60;;;;;;5070069;28;20035;-69
2021/07/23 00:08:06;;;;;;;4.40;3.38;;;21.90;65.60;;;;;;5061393;28;22333;-69
2021/07/23 00:10:32;;;;;;;4.57;3.58;;;21.80;65.50;;;;;;5087097;28;20040;-69
2021/07/23 00:12:58;;;;;;;5.63;3.45;;;21.80;65.60;;;;;;5089808;28;20062;-70
2021/07/23 00:15:25;;;;;;;6.18;3.67;;;21.80;65.40;;;;;;5091137;28;20043;-69
2021/07/23 00:17:50;;;;;;;5.95;3.63;;;21.90;65.50;;;;;;5088212;28;20093;-69
2021/07/23 00:20:16;;;;;;;6.85;3.70;;;21.90;65.50;;;;;;5050951;28;20036;-69
2021/07/23 00:22:42;;;;;;;5.28;3.50;;;21.90;65.40;;;;;;5074540;28;20040;-69
2021/07/23 00:25:08;;;;;;;3.90;3.47;;;21.90;65.50;;;;;;5087495;28;20044;-69
2021/07/23 00:27:34;;;;;;;5.68;3.90;;;21.90;65.40;;;;;;5088932;28;20031;-70
2021/07/23 00:30:00;;;;;;;5.55;3.67;;;21.90;65.30;;;;;;5074295;28;20052;-69
2021/07/23 00:32:26;;;;;;;4.22;3.35;;;21.90;65.30;;;;;;5088220;28;20039;-69
2021/07/23 00:34:51;;;;;;;4.38;3.50;;;21.80;65.20;;;;;;5088330;28;20675;-69
2021/07/23 00:37:17;;;;;;;4.65;3.65;;;21.90;65.20;;;;;;5088217;28;20048;-69
2021/07/23 00:39:43;;;;;;;3.97;3.42;;;21.90;65.30;;;;;;5068621;28;20125;-69
2021/07/23 00:42:09;;;;;;;4.18;3.60;;;21.90;65.40;;;;;;5089190;28;20035;-70
2021/07/23 00:44:35;;;;;;;5.78;3.83;;;21.90;65.30;;;;;;5075692;28;20036;-69
2021/07/23 00:47:01;;;;;;;4.68;3.63;;;21.90;65.20;;;;;;5087754;28;20041;-69
2021/07/23 00:49:27;;;;;;;4.32;3.45;;;21.90;65.30;;;;;;5087833;28;20689;-69
2021/07/23 00:51:53;;;;;;;4.35;3.65;;;21.90;65.30;;;;;;5070523;28;20510;-69
2021/07/23 00:54:20;;;;;;;4.38;3.53;;;21.90;65.40;;;;;;5087887;28;20040;-69
2021/07/23 00:56:46;;;;;;;6.32;4.00;;;21.90;65.30;;;;;;5088372;28;20039;-69
2021/07/23 00:59:12;;;;;;;6.07;3.75;;;21.90;65.20;;;;;;5061440;28;20104;-69
2021/07/23 01:01:38;;;;;;;3.95;3.30;;;21.90;64.40;;;;;;5095164;28;20028;-69
2021/07/23 01:04:04;;;;;;;3.92;3.22;;;21.70;64.70;;;;;;5080190;28;20486;-69
2021/07/23 01:06:30;;;;;;;4.05;3.55;;;21.70;65.10;;;;;;5095844;28;20032;-69
2021/07/23 01:08:56;;;;;;;4.03;3.60;;;21.70;65.30;;;;;;5092886;28;20055;-69
2021/07/23 01:11:24;;;;;;;5.13;3.05;;;21.70;65.00;;;;;;5080848;28;20055;-70
2021/07/23 01:13:50;;;;;;;4.43;3.15;;;21.70;64.90;;;;;;5096429;28;20036;-69
2021/07/23 01:16:16;;;;;;;3.90;2.97;;;21.70;65.10;;;;;;5095903;28;20523;-70
2021/07/23 01:18:42;;;;;;;4.18;3.28;;;21.60;65.10;;;;;;5093673;28;20043;-69
2021/07/23 01:21:09;;;;;;;3.75;3.10;;;21.70;65.00;;;;;;5060078;28;20047;-69
2021/07/23 01:23:35;;;;;;;6.15;4.00;;;21.60;65.00;;;;;;5065202;28;20119;-70
2021/07/23 01:26:03;;;;;;;6.00;4.05;;;21.60;64.80;;;;;;5093299;28;20265;-69
2021/07/23 01:28:31;;;;;;;5.85;3.20;;;21.70;65.00;;;;;;5097572;28;20055;-70
2021/07/23 01:30:58;;;;;;;6.25;3.35;;;21.70;65.50;;;;;;5096985;28;20588;-63
2021/07/23 01:33:24;;;;;;;5.20;3.08;;;21.70;64.80;;;;;;5066157;28;20036;-63
2021/07/23 01:35:51;;;;;;;5.80;4.10;;;21.70;64.50;;;;;;5088933;28;20036;-63
2021/07/23 01:38:17;;;;;;;8.15;3.83;;;21.70;64.30;;;;;;5066987;28;20131;-63
2021/07/23 01:40:43;;;;;;;4.28;3.60;;;21.70;64.60;;;;;;5076670;28;20120;-63
2021/07/23 01:43:11;;;;;;;3.55;3.17;;;21.60;64.60;;;;;;5095075;28;20028;-63
2021/07/23 01:45:37;;;;;;;5.03;3.05;;;21.60;64.70;;;;;;5096671;28;20062;-63
2021/07/23 01:48:03;;;;;;;5.28;3.63;;;21.70;64.70;;;;;;5095003;28;20059;-63
2021/07/23 01:50:29;;;;;;;4.32;3.00;;;21.70;64.70;;;;;;5049752;28;20039;-63
2021/07/23 01:52:55;;;;;;;4.40;3.90;;;21.70;64.70;;;;;;5049266;28;20110;-63
2021/07/23 01:55:20;;;;;;;4.18;2.95;;;21.70;64.80;;;;;;5093408;28;20506;-63
2021/07/23 01:57:46;;;;;;;3.88;3.47;;;21.70;64.70;;;;;;5093666;28;20043;-63
2021/07/23 02:00:14;;;;;;;4.95;3.05;;;21.70;64.80;;;;;;5095822;28;20122;-66
2021/07/23 02:02:40;;;;;;;5.80;3.30;;;21.70;64.40;;;;;;5095040;28;20119;-65
2021/07/23 02:05:06;;;;;;;3.80;3.28;;;21.70;64.40;;;;;;5093636;28;20119;-68
2021/07/23 02:07:32;;;;;;;4.82;3.45;;;21.70;64.40;;;;;;5092641;28;20040;-68
2021/07/23 02:09:58;;;;;;;5.05;3.80;;;21.70;64.60;;;;;;5076700;28;20055;-68
2021/07/23 02:12:24;;;;;;;6.15;3.53;;;21.60;64.50;;;;;;5074229;28;20041;-68
2021/07/23 02:14:51;;;;;;;4.95;3.15;;;21.70;64.50;;;;;;5092164;28;20044;-68
2021/07/23 02:17:18;;;;;;;6.60;3.60;;;21.70;64.50;;;;;;5074108;28;20031;-65
2021/07/23 02:19:44;;;;;;;4.57;3.85;;;21.70;64.50;;;;;;5090134;28;20039;-65
2021/07/23 02:22:10;;;;;;;5.35;4.28;;;21.70;64.40;;;;;;5075147;28;20050;-65
2021/07/23 02:24:35;;;;;;;4.13;3.47;;;21.70;64.40;;;;;;5073150;28;20495;-65
2021/07/23 02:27:01;;;;;;;4.60;3.53;;;21.60;64.30;;;;;;5090982;28;20032;-65
2021/07/23 02:29:27;;;;;;;4.25;3.60;;;21.60;64.50;;;;;;5077917;28;20055;-65
2021/07/23 02:31:53;;;;;;;6.20;3.90;;;21.70;64.40;;;;;;5091828;28;20044;-65
2021/07/23 02:34:20;;;;;;;4.00;3.40;;;21.60;64.90;;;;;;5089729;28;20043;-65
2021/07/23 02:36:46;;;;;;;4.63;3.40;;;21.60;64.50;;;;;;5091222;28;20472;-65
2021/07/23 02:39:12;;;;;;;4.88;3.80;;;21.60;64.50;;;;;;5090473;28;20040;-65
2021/07/23 02:41:38;;;;;;;5.35;3.08;;;21.60;64.60;;;;;;5071724;28;20040;-65
2021/07/23 02:44:04;;;;;;;6.15;4.35;;;21.60;64.60;;;;;;5090633;28;20520;-65
2021/07/23 02:46:30;;;;;;;4.65;3.30;;;21.60;64.60;;;;;;5092670;28;20036;-65
2021/07/23 02:48:56;;;;;;;5.35;3.65;;;21.60;64.60;;;;;;5063708;28;20100;-65
2021/07/23 02:51:21;;;;;;;7.53;4.03;;;21.60;64.80;;;;;;5077219;28;20046;-65
2021/07/23 02:53:47;;;;;;;4.45;3.50;;;21.60;64.80;;;;;;5090035;28;20482;-66
2021/07/23 02:56:13;;;;;;;5.32;3.47;;;21.50;64.80;;;;;;5090285;28;20123;-66
2021/07/23 02:58:42;;;;;;;4.32;3.33;;;21.50;64.80;;;;;;5089754;28;20036;-65
2021/07/23 03:01:09;;;;;;;6.63;3.63;;;21.60;65.00;;;;;;5075201;28;20066;-66
2021/07/23 03:03:35;;;;;;;6.03;3.85;;;21.50;64.10;;;;;;5089050;28;20507;-65
2021/07/23 03:06:01;;;;;;;4.85;3.70;;;21.30;63.60;;;;;;5091691;28;20082;-66
2021/07/23 03:08:27;;;;;;;5.55;4.22;;;21.20;64.60;;;;;;5076812;28;20044;-66
2021/07/23 03:10:54;;;;;;;4.93;4.03;;;21.00;64.90;;;;;;5089942;28;20052;-65
2021/07/23 03:13:20;;;;;;;8.07;4.45;;;21.00;65.60;;;;;;5072618;28;20040;-65
2021/07/23 03:15:46;;;;;;;6.60;4.93;;;20.90;64.60;;;;;;5090867;28;20028;-65
2021/07/23 03:18:12;;;;;;;7.07;4.63;;;20.80;64.50;;;;;;5089861;28;20050;-65
2021/07/23 03:20:38;;;;;;;5.97;5.07;;;20.60;64.30;;;;;;5089716;28;20044;-65
2021/07/23 03:23:07;;;;;;;9.52;6.07;;;20.30;64.30;;;;;;5071607;28;20032;-65
2021/07/23 03:25:33;;;;;;;6.57;4.45;;;20.20;64.00;;;;;;5089758;28;20058;-65
2021/07/23 03:28:00;;;;;;;5.32;4.40;;;20.00;64.40;;;;;;5087959;28;20036;-65
2021/07/23 03:30:27;;;;;;;5.15;4.55;;;19.70;65.00;;;;;;5063648;28;20123;-65
2021/07/23 03:32:53;;;;;;;5.22;4.50;;;19.60;65.60;;;;;;5028887;28;20040;-65
2021/07/23 03:35:19;;;;;;;6.38;4.65;;;19.50;67.40;;;;;;5062995;28;20032;-65
2021/07/23 03:37:45;;;;;;;6.47;4.70;;;19.60;68.60;;;;;;5077902;28;20038;-65
2021/07/23 03:40:11;;;;;;;5.45;4.95;;;19.80;68.50;;;;;;5090678;28;20088;-65
2021/07/23 03:42:37;;;;;;;8.38;6.13;;;19.90;67.20;;;;;;5089267;28;20061;-65
2021/07/23 03:45:03;;;;;;;5.65;4.65;;;19.90;66.80;;;;;;5090006;28;20113;-65
2021/07/23 03:47:29;;;;;;;5.43;4.72;;;20.00;67.50;;;;;;5089663;28;20070;-65
2021/07/23 03:49:55;;;;;;;5.63;4.72;;;20.10;68.00;;;;;;5090113;28;20051;-65
2021/07/23 03:52:21;;;;;;;5.47;4.90;;;20.20;68.10;;;;;;5051499;28;20410;-65
2021/07/23 03:54:46;;;;;;;5.25;4.75;;;20.40;67.70;;;;;;5089949;28;20361;-65
2021/07/23 06:32:17;;;;;;;10.70;4.70;;;21.70;67.30;;;;;;5288221;23;20059;31
2021/07/23 06:34:49;;;;;;;10.30;4.85;;;21.70;68.50;;;;;;5333197;23;21161;-62
2021/07/23 06:37:20;;;;;;;11.45;4.75;;;21.70;70.00;;;;;;5451006;23;20054;-70
2021/07/23 06:39:47;;;;;;;9.15;4.38;;;21.70;69.80;;;;;;4942518;29;20944;-66
2021/07/23 06:42:13;;;;;;;10.18;4.43;;;21.80;69.90;;;;;;4941633;29;20043;-67
2021/07/23 06:44:39;;;;;;;7.55;4.20;;;21.80;69.10;;;;;;4942499;29;20050;-67
2021/07/23 06:47:05;;;;;;;7.78;3.35;;;21.90;68.30;;;;;;4925256;29;20043;-66
2021/07/23 06:49:31;;;;;;;8.10;3.78;;;21.90;67.00;;;;;;4942357;29;20047;-66
2021/07/23 06:55:53;;;;;;;5.35;3.53;;;22.00;65.30;;;;;;5185596;23;20522;-61
2021/07/23 06:58:19;;;;;;;8.27;3.90;;;21.90;65.30;;;;;;5650950;23;20029;-68
2021/07/23 07:03:53;;;;;;;6.72;3.50;;;22.00;64.50;;;;;;4958753;23;19926;-61
2021/07/23 07:06:18;;;;;;;7.47;3.40;;;22.00;64.20;;;;;;4957002;28;20375;-61
2021/07/23 07:08:44;;;;;;;7.45;3.20;;;22.00;63.70;;;;;;4961039;28;20149;-61
2021/07/23 07:11:10;;;;;;;5.45;3.80;;;22.00;63.60;;;;;;4964884;28;20118;-61
2021/07/23 07:13:36;;;;;;;9.38;3.55;;;22.00;63.60;;;;;;4960942;28;20466;-61
2021/07/23 07:16:02;;;;;;;7.93;4.07;;;22.00;63.50;;;;;;4964498;28;20050;-61
2021/07/23 07:18:28;;;;;;;6.95;3.75;;;22.00;63.40;;;;;;4961706;28;20346;-61
2021/07/23 07:20:54;;;;;;;5.35;3.47;;;22.00;63.20;;;;;;4959005;28;20046;-61
2021/07/23 07:23:20;;;;;;;5.05;3.35;;;21.90;63.10;;;;;;4958707;28;20046;-59
2021/07/23 07:25:45;;;;;;;5.97;3.30;;;22.00;63.20;;;;;;4961396;28;20434;-60
2021/07/23 07:28:11;;;;;;;6.22;3.45;;;21.90;63.20;;;;;;4959878;28;20035;-60
2021/07/23 07:30:37;;;;;;;5.57;3.47;;;21.90;63.10;;;;;;4959874;28;20034;-61
2021/07/23 07:33:03;;;;;;;8.18;3.80;;;21.90;63.20;;;;;;4959584;28;20035;-62
2021/07/23 07:35:30;;;;;;;4.43;3.50;;;21.90;63.00;;;;;;4959800;28;20069;-62
2021/07/23 07:37:55;;;;;;;6.43;3.50;;;21.80;62.70;;;;;;4962776;28;20096;-60
2021/07/23 07:40:21;;;;;;;5.85;3.03;;;21.80;62.70;;;;;;4959000;28;20055;-60
2021/07/23 07:42:47;;;;;;;3.80;2.80;;;21.80;62.70;;;;;;4964095;28;20039;-61
2021/07/23 07:45:13;;;;;;;8.05;3.55;;;21.80;62.70;;;;;;4961036;28;20081;-60
2021/07/23 07:47:38;;;;;;;5.18;3.33;;;21.90;62.60;;;;;;4958756;28;20070;-60
2021/07/23 07:50:05;;;;;;;7.55;3.90;;;21.90;62.60;;;;;;4958954;28;20070;-63
2021/07/23 07:52:31;;;;;;;7.75;3.97;;;21.80;62.60;;;;;;4959203;28;20542;-61
2021/07/23 07:54:57;;;;;;;7.25;3.85;;;21.80;62.80;;;;;;4960926;28;20042;-64
2021/07/23 07:57:23;;;;;;;5.53;3.85;;;21.70;62.90;;;;;;4963408;28;20038;-63
2021/07/23 07:59:49;;;;;;;10.35;4.57;;;21.70;63.10;;;;;;4959065;28;20039;-61
2021/07/23 08:02:17;;;;;;;7.03;4.57;;;21.70;63.10;;;;;;4964762;28;20058;-60
2021/07/23 08:04:42;;;;;;;14.77;4.28;;;21.80;63.10;;;;;;4982458;28;20035;-62
2021/07/23 08:07:13;;;;;;;8.70;3.90;;;21.70;63.40;;;;;;4977306;28;20101;-61
2021/07/23 08:09:58;;;;;;;7.47;3.83;;;21.80;63.00;;;;;;4977408;28;20085;-61
2021/07/23 08:12:25;;;;;;;9.55;4.47;;;21.80;62.90;;;;;;4975991;28;20449;-68
2021/07/23 08:14:51;;;;;;;6.75;3.80;;;21.80;62.80;;;;;;4981104;28;20034;-68
2021/07/23 08:17:17;;;;;;;13.02;10.07;;;21.80;62.90;;;;;;4978332;28;20122;-68
2021/07/23 08:19:43;;;;;;;14.82;11.63;;;21.80;62.90;;;;;;4978651;28;20054;-69
2021/07/23 08:22:09;;;;;;;14.45;11.02;;;21.90;63.00;;;;;;4979743;28;20061;-68
2021/07/23 08:24:36;;;;;;;14.02;9.32;;;21.90;63.00;;;;;;4980967;28;20035;-68
2021/07/23 08:27:03;;;;;;;14.23;9.55;;;22.00;62.90;;;;;;4977689;28;20164;-68
2021/07/23 08:29:29;;;;;;;11.38;7.60;;;22.00;62.90;;;;;;4978307;28;20038;-69
2021/07/23 08:31:55;;;;;;;10.48;5.10;;;22.00;62.50;;;;;;4981475;28;20042;-62
2021/07/23 08:34:20;;;;;;;10.43;5.05;;;22.00;62.20;;;;;;4980201;28;20117;-67
2021/07/23 08:36:47;;;;;;;7.65;5.82;;;22.00;62.40;;;;;;4961461;28;20043;-67
2021/07/23 08:39:12;;;;;;;9.13;5.07;;;21.90;62.50;;;;;;4977133;28;20046;-64
2021/07/23 08:41:38;;;;;;;8.35;4.72;;;22.00;62.50;;;;;;4978282;28;20061;-67
2021/07/23 08:44:04;;;;;;;10.75;5.00;;;22.10;62.30;;;;;;4978509;28;20182;-73
2021/07/23 08:46:31;;;;;;;10.13;5.03;;;22.20;62.40;;;;;;4976372;28;20030;-69
2021/07/23 08:48:58;;;;;;;7.72;4.57;;;22.30;62.40;;;;;;4975408;28;20406;-69
2021/07/23 08:51:24;;;;;;;9.77;4.72;;;22.40;62.40;;;;;;4976942;28;20075;-69
2021/07/23 08:53:49;;;;;;;7.35;4.63;;;22.40;62.10;;;;;;4977782;28;20110;-69
2021/07/23 08:56:15;;;;;;;10.85;4.68;;;22.40;62.20;;;;;;4977493;28;20125;-69
2021/07/23 08:58:41;;;;;;;7.20;4.57;;;22.40;62.80;;;;;;4976851;28;20035;-69
2021/07/23 09:01:07;;;;;;;7.22;4.05;;;22.40;62.20;;;;;;4977333;28;20117;-69
2021/07/23 09:03:34;;;;;;;7.13;4.07;;;22.40;62.00;;;;;;4976207;28;20092;-67
2021/07/23 09:06:15;;;;;;;5.22;3.63;;;22.50;61.90;;;;;;4979659;28;20046;-67
2021/07/23 09:08:52;;;;;;;6.45;4.50;;;22.50;61.80;;;;;;4995224;28;20048;-68
2021/07/23 09:11:27;;;;;;;6.95;4.32;;;22.40;61.70;;;;;;4997202;28;20030;-69
2021/07/23 09:14:10;;;;;;;6.75;3.97;;;22.40;61.60;;;;;;4996532;28;20033;-69
2021/07/23 09:16:36;;;;;;;10.15;4.00;;;22.50;61.50;;;;;;4996476;28;20030;-69
2021/07/23 09:19:06;;;;;;;6.53;3.95;;;22.50;61.30;;;;;;4981281;28;20046;-69
2021/07/23 09:21:39;;;;;;;5.35;4.40;;;22.60;61.30;;;;;;4999834;28;20041;-69
2021/07/23 09:24:05;;;;;;;;;;;22.60;61.20;;;;;;5002377;28;20739;-69
2021/07/23 09:26:46;;;;;;;4.95;3.78;;;22.50;61.30;;;;;;5000066;28;19925;-69
2021/07/23 09:29:13;;;;;;;6.30;4.22;;;22.50;61.30;;;;;;5002059;28;20141;-69
2021/07/23 09:31:39;;;;;;;9.07;4.50;;;22.50;61.20;;;;;;4983404;28;20042;-69
2021/07/23 09:34:07;;;;;;;8.10;4.72;;;22.60;61.40;;;;;;4988457;28;20070;-68
2021/07/23 09:36:33;;;;;;;7.22;4.68;;;22.60;61.40;;;;;;4999539;28;20153;-69
2021/07/23 09:39:11;;;;;;;7.10;4.35;;;22.60;61.60;;;;;;4969487;28;20042;-66
2021/07/23 09:41:36;;;;;;;6.75;4.57;;;22.70;61.60;;;;;;5000812;28;20038;-67
2021/07/23 09:44:12;;;;;;;5.60;4.15;;;22.70;61.50;;;;;;4998899;28;20038;-67
2021/07/23 09:46:41;;;;;;;9.63;6.40;;;22.70;61.30;;;;;;4999797;28;20049;-66
2021/07/23 09:49:30;;;;;;;12.13;8.07;;;22.70;60.70;;;;;;5001415;28;20073;-67
2021/07/23 09:52:01;;;;;;;15.38;11.38;;;22.70;60.90;;;;;;5001234;28;20391;-67
2021/07/23 09:54:28;;;;;;;15.10;10.32;;;22.70;61.00;;;;;;4984727;28;20120;-67
2021/07/23 09:56:53;;;;;;;13.05;9.68;;;22.70;60.80;;;;;;5001461;28;20069;-67
2021/07/23 09:59:37;;;;;;;9.18;7.13;;;22.70;60.60;;;;;;4979947;28;20125;-69
2021/07/23 10:02:05;;;;;;;7.03;3.88;;;22.70;60.40;;;;;;4982034;28;20042;-69
2021/07/23 10:04:47;;;;;;;8.05;6.20;;;22.80;60.00;;;;;;4986909;28;20112;-69
2021/07/23 10:07:19;;;;;;;10.23;5.78;;;22.70;60.20;;;;;;4969823;28;20046;-69
2021/07/23 10:09:47;;;;;;;6.57;5.20;;;22.70;60.20;;;;;;4998950;28;20061;-69
2021/07/23 10:12:16;;;;;;;6.95;4.95;;;22.70;60.20;;;;;;5000125;28;20107;-70
2021/07/23 10:14:46;;;;;;;6.63;5.00;;;22.70;60.10;;;;;;4985030;28;20042;-70
2021/07/23 10:17:13;;;;;;;7.70;4.55;;;22.80;60.20;;;;;;5000556;28;20058;-69
2021/07/23 10:19:40;;;;;;;6.53;4.15;;;22.80;60.10;;;;;;4982773;28;20050;-70
2021/07/23 10:22:07;;;;;;;8.93;4.57;;;22.90;60.00;;;;;;4998596;28;20117;-70
2021/07/23 10:24:36;;;;;;;15.90;9.88;;;22.90;59.80;;;;;;4981724;28;20391;-70
2021/07/23 10:27:06;;;;;;;7.10;4.95;;;22.90;59.60;;;;;;4998833;28;20046;-70
2021/07/23 10:29:52;;;;;;;8.50;5.40;;;22.90;59.80;;;;;;4981799;28;21349;-70
2021/07/23 10:32:27;;;;;;;8.02;5.18;;;23.00;59.90;;;;;;4981572;28;20196;-70
2021/07/23 10:34:55;;;;;;;8.48;4.90;;;23.00;59.70;;;;;;4999627;28;20052;-70
2021/07/23 10:37:30;;;;;;;6.53;4.60;;;23.10;59.50;;;;;;4980937;28;20065;-70
2021/07/23 10:40:09;;;;;;;7.22;5.43;;;23.20;59.10;;;;;;4998375;28;20045;-70
2021/07/23 10:42:39;;;;;;;7.72;3.80;;;23.30;58.70;;;;;;4998520;28;20746;-70
2021/07/23 10:45:08;;;;;;;6.05;4.82;;;23.30;58.50;;;;;;4998198;28;20038;-70
2021/07/23 10:47:39;;;;;;;7.68;4.63;;;23.30;58.50;;;;;;4980633;28;20029;-72
2021/07/23 10:50:07;;;;;;;6.40;4.28;;;23.30;58.70;;;;;;4998744;28;20117;-72
2021/07/23 10:52:39;;;;;;;6.05;3.85;;;23.30;58.70;;;;;;4982667;28;20044;-71
2021/07/23 10:55:12;;;;;;;4.50;3.05;;;23.30;58.60;;;;;;4997824;28;20044;-71
2021/07/23 10:57:39;;;;;;;5.43;3.60;;;23.30;58.20;;;;;;4999726;28;20065;-71
2021/07/23 11:00:06;;;;;;;5.38;3.95;;;23.30;58.20;;;;;;4997304;28;20045;-71
2021/07/23 11:02:32;;;;;;;5.90;2.80;;;23.20;58.50;;;;;;4982378;28;20046;-71
2021/07/23 11:05:08;;;;;;;4.63;3.03;;;23.20;58.20;;;;;;4980272;28;20383;-72
2021/07/23 11:07:34;;;;;;;5.72;3.65;;;23.10;58.30;;;;;;4984327;28;20041;-68
2021/07/23 11:10:00;;;;;;;6.63;3.10;;;23.00;58.00;;;;;;4998500;28;20056;-67
2021/07/23 11:12:31;;;;;;;7.57;3.78;;;22.80;58.20;;;;;;4998077;28;20389;-67
2021/07/23 11:15:07;;;;;;;4.88;4.05;;;22.70;58.50;;;;;;4999033;28;20070;-67
2021/07/23 11:17:45;;;;;;;7.32;3.22;;;22.70;58.90;;;;;;4998756;28;20112;-68
2021/07/23 11:20:11;;;;;;;6.03;3.25;;;22.60;59.20;;;;;;4999405;28;20050;-68
2021/07/23 11:22:37;;;;;;;7.13;2.80;;;22.50;59.40;;;;;;4980825;28;20121;-68
2021/07/23 11:25:09;;;;;;;6.15;3.60;;;22.40;59.50;;;;;;4998243;28;20600;-68
2021/07/23 11:27:37;;;;;;;6.82;3.70;;;22.30;59.60;;;;;;4998046;28;20065;-66
2021/07/23 11:30:21;;;;;;;9.38;4.20;;;22.30;59.60;;;;;;4998988;28;20053;-67
2021/07/23 11:32:55;;;;;;;5.75;3.15;;;22.30;59.20;;;;;;4996253;28;20038;-67
2021/07/23 11:35:26;;;;;;;5.65;3.08;;;22.10;59.90;;;;;;4997655;28;20042;-66
2021/07/23 11:37:53;;;;;;;4.63;3.38;;;22.10;60.70;;;;;;4999097;28;20046;-67
2021/07/23 11:40:22;;;;;;;4.63;2.95;;;22.20;60.80;;;;;;4997536;28;20046;-66
2021/07/23 11:42:50;;;;;;;5.10;3.35;;;22.30;60.90;;;;;;4997787;28;20504;-66
2021/07/23 11:45:19;;;;;;;5.38;3.78;;;22.40;60.90;;;;;;4985633;28;20049;-67
2021/07/23 11:47:53;;;;;;;5.18;3.22;;;22.30;61.00;;;;;;4997584;28;20041;-67
2021/07/23 11:50:20;;;;;;;5.18;3.30;;;22.20;61.20;;;;;;4998190;28;20439;-66
2021/07/23 11:52:49;;;;;;;6.57;3.05;;;22.10;61.40;;;;;;4985726;28;20038;-66
2021/07/23 11:55:17;;;;;;;5.75;3.20;;;22.00;61.70;;;;;;4997143;28;20037;-66
2021/07/23 11:57:47;;;;;;;5.50;3.20;;;22.00;62.40;;;;;;4998099;28;20052;-63
2021/07/23 12:00:19;;;;;;;7.07;3.03;;;22.00;62.30;;;;;;4984212;28;21904;-62
2021/07/23 12:02:45;;;;;;;6.77;3.53;;;21.90;62.30;;;;;;4997932;28;20147;-63
2021/07/23 12:05:13;;;;;;;7.82;3.70;;;21.80;63.00;;;;;;4997513;28;20037;-63
2021/07/23 12:07:40;;;;;;;5.78;3.55;;;21.80;63.50;;;;;;4997947;28;20045;-63
2021/07/23 12:10:07;;;;;;;8.13;3.60;;;21.90;63.50;;;;;;4996588;28;20678;-63
2021/07/23 12:12:35;;;;;;;6.05;3.65;;;21.90;63.40;;;;;;4998380;28;20505;-62
2021/07/23 12:15:02;;;;;;;6.35;3.10;;;22.10;63.10;;;;;;4999720;28;20037;-64
2021/07/23 12:17:28;;;;;;;7.75;3.40;;;22.20;63.10;;;;;;4996887;28;20045;-62
2021/07/23 12:19:55;;;;;;;4.80;3.13;;;22.30;62.40;;;;;;4995258;28;20100;-62
2021/07/23 12:22:21;;;;;;;10.23;4.20;;;22.20;61.80;;;;;;4979035;28;20104;-63
2021/07/23 12:24:47;;;;;;;6.75;3.72;;;22.10;61.90;;;;;;4997008;28;20034;-62
2021/07/23 12:27:18;;;;;;;8.18;4.22;;;22.00;62.00;;;;;;4979874;28;20076;-62
2021/07/23 12:29:44;;;;;;;5.70;4.00;;;22.00;62.30;;;;;;4994132;28;20038;-66
2021/07/23 12:32:24;;;;;;;5.20;3.63;;;21.90;62.70;;;;;;4997069;28;20046;-66
2021/07/23 12:34:57;;;;;;;10.10;5.35;;;22.00;62.70;;;;;;4978451;28;20651;-67
2021/07/23 12:37:23;;;;;;;10.48;4.68;;;21.90;62.20;;;;;;4995609;28;20072;-66
2021/07/23 12:39:56;;;;;;;5.70;3.63;;;21.80;62.50;;;;;;4998301;28;21457;-67
2021/07/23 12:42:24;;;;;;;7.20;5.13;;;21.80;62.70;;;;;;4980869;28;20064;-67
2021/07/23 12:44:51;;;;;;;7.82;5.15;;;21.70;62.40;;;;;;4996183;28;20066;-67
2021/07/23 12:47:27;;;;;;;6.97;3.70;;;21.60;62.40;;;;;;4996674;28;20208;-68
2021/07/23 12:49:55;;;;;;;5.13;3.63;;;21.60;63.10;;;;;;4997857;28;20041;-67
2021/07/23 12:52:21;;;;;;;5.70;3.70;;;21.60;63.40;;;;;;4996248;28;20466;-66
2021/07/23 12:54:49;;;;;;;9.55;3.92;;;21.60;63.20;;;;;;4998110;28;20117;-66
2021/07/23 12:57:31;;;;;;;4.78;3.70;;;21.70;63.10;;;;;;4996347;28;20121;-66
2021/07/23 13:00:18;;;;;;;6.22;3.50;;;21.80;62.80;;;;;;4994550;28;20042;-67
2021/07/23 13:02:45;;;;;;;9.13;4.10;;;21.80;62.70;;;;;;4996129;28;22329;-67
2021/07/23 13:05:11;;;;;;;7.20;3.90;;;21.80;62.80;;;;;;4994782;28;20432;-67
2021/07/23 13:07:37;;;;;;;10.85;4.07;;;21.80;62.70;;;;;;4996325;28;20049;-67
2021/07/23 13:10:03;;;;;;;7.60;3.63;;;21.80;62.00;;;;;;4997479;28;20125;-67
2021/07/23 13:12:29;;;;;;;7.10;3.92;;;21.70;62.00;;;;;;4996537;28;20500;-62
2021/07/23 13:14:55;;;;;;;5.85;3.65;;;21.70;62.40;;;;;;4997357;28;20112;-63
2021/07/23 13:17:21;;;;;;;11.90;8.70;;;21.70;62.70;;;;;;4995709;28;20116;-63
2021/07/23 13:19:47;;;;;;;9.23;4.78;;;21.80;62.90;;;;;;4995255;28;20078;-62
2021/07/23 13:22:14;;;;;;;8.70;4.53;;;21.80;62.70;;;;;;4996850;28;20046;-63
2021/07/23 13:24:40;;;;;;;4.70;3.50;;;21.90;62.40;;;;;;4963664;28;20116;-62
2021/07/23 13:27:06;;;;;;;5.32;3.60;;;21.90;62.60;;;;;;4995128;28;20125;-63
2021/07/23 13:29:32;;;;;;;6.45;4.35;;;22.00;62.00;;;;;;4978665;28;20046;-63
2021/07/23 13:31:58;;;;;;;7.07;3.72;;;22.00;61.60;;;;;;4997220;28;20038;-60
2021/07/23 13:34:24;;;;;;;6.93;3.85;;;22.00;61.90;;;;;;4997488;28;20089;-61
2021/07/23 13:37:09;;;;;;;6.93;3.58;;;22.10;62.30;;;;;;4983063;28;20397;-62
2021/07/23 13:40:00;;;;;;;5.03;3.35;;;22.10;61.70;;;;;;4997075;28;20074;-65
2021/07/23 13:42:27;;;;;;;7.50;3.70;;;22.20;61.30;;;;;;4993939;28;20038;-68
2021/07/23 13:44:53;;;;;;;5.70;3.28;;;22.10;61.40;;;;;;4977929;28;20097;-64
2021/07/23 13:47:19;;;;;;;7.95;3.60;;;22.20;61.10;;;;;;4982322;28;20069;-66
2021/07/23 13:49:45;;;;;;;9.85;4.20;;;22.10;60.90;;;;;;4977706;28;20041;-66
2021/07/23 13:52:10;;;;;;;4.80;3.45;;;22.10;60.80;;;;;;4996166;28;20046;-65
2021/07/23 13:54:37;;;;;;;7.97;3.88;;;22.10;61.10;;;;;;4982204;28;20034;-67
2021/07/23 13:57:04;;;;;;;7.43;3.28;;;22.10;60.90;;;;;;4994882;28;20112;-65
2021/07/23 13:59:31;;;;;;;3.50;2.80;;;22.00;60.50;;;;;;4994889;28;21093;-66
2021/07/23 14:01:58;;;;;;;4.90;2.65;;;22.00;60.40;;;;;;4981430;28;20050;-65
2021/07/23 14:04:25;;;;;;;5.95;3.05;;;22.00;61.10;;;;;;4994847;28;20183;-67
2021/07/23 14:06:51;;;;;;;9.43;5.85;;;22.00;60.90;;;;;;4983020;28;20042;-67
2021/07/23 14:09:17;;;;;;;6.82;3.13;;;22.00;60.40;;;;;;5001000;28;20532;-66
2021/07/23 14:11:44;;;;;;;9.82;7.05;;;22.00;60.50;;;;;;4998678;28;20041;-67
2021/07/23 14:14:10;;;;;;;5.43;3.30;;;22.00;60.30;;;;;;4999074;28;20045;-65
2021/07/23 14:16:36;;;;;;;3.90;3.03;;;22.10;60.50;;;;;;4999141;28;20046;-65
2021/07/23 14:19:02;;;;;;;4.93;3.50;;;22.00;60.40;;;;;;4998587;28;20039;-67
2021/07/23 14:21:28;;;;;;;9.18;3.42;;;22.10;60.40;;;;;;4998566;28;20048;-66
2021/07/23 14:23:53;;;;;;;4.80;3.25;;;22.20;60.70;;;;;;4999797;28;20045;-67
2021/07/23 14:26:19;;;;;;;6.25;3.65;;;22.20;59.90;;;;;;4998805;28;20046;-65
2021/07/23 14:28:46;;;;;;;7.38;4.25;;;22.30;60.20;;;;;;4983678;28;20034;-67
2021/07/23 14:31:15;;;;;;;5.45;3.70;;;22.30;60.40;;;;;;4998034;28;20765;-67
2021/07/23 14:33:42;;;;;;;6.55;3.40;;;22.30;60.00;;;;;;4999126;28;20045;-66
2021/07/23 14:36:08;;;;;;;8.25;3.25;;;22.30;60.30;;;;;;4999361;28;20044;-66
2021/07/23 14:38:35;;;;;;;5.82;3.47;;;22.30;60.00;;;;;;4999542;28;20049;-67
2021/07/23 14:41:01;;;;;;;6.22;3.33;;;22.30;59.70;;;;;;4999675;28;20074;-66
2021/07/23 14:43:27;;;;;;;6.25;4.18;;;22.20;59.90;;;;;;4999726;28;20485;-64
2021/07/23 14:45:53;;;;;;;6.40;3.95;;;22.20;60.10;;;;;;4999190;28;20045;-65
2021/07/23 14:48:19;;;;;;;5.82;3.60;;;22.30;60.00;;;;;;4999502;28;20053;-66
2021/07/23 14:50:46;;;;;;;7.68;4.47;;;22.40;59.50;;;;;;4997988;28;20045;-65
2021/07/23 14:53:12;;;;;;;6.75;3.60;;;22.40;59.70;;;;;;4985483;28;20084;-65
2021/07/23 14:55:40;;;;;;;3.80;3.25;;;22.30;60.30;;;;;;4998413;28;20117;-65
2021/07/23 14:58:06;;;;;;;7.32;3.45;;;22.30;60.10;;;;;;4982524;28;20065;-65
2021/07/23 15:00:32;;;;;;;7.30;3.22;;;22.20;60.10;;;;;;4998219;28;20042;-65
2021/07/23 15:02:58;;;;;;;4.03;3.33;;;22.20;60.10;;;;;;4998667;28;20723;-65
2021/07/23 15:05:23;;;;;;;4.85;3.08;;;22.20;60.70;;;;;;4999279;28;20044;-65
2021/07/23 15:07:50;;;;;;;5.45;3.63;;;22.20;61.00;;;;;;4999754;28;20390;-65
2021/07/23 15:10:16;;;;;;;5.53;3.95;;;22.20;60.60;;;;;;4997758;28;20584;-65
2021/07/23 15:12:43;;;;;;;5.75;3.22;;;22.10;60.40;;;;;;4997933;28;20030;-65
2021/07/23 15:15:14;;;;;;;7.93;4.32;;;22.10;60.30;;;;;;4999173;28;20042;-65
2021/07/23 15:17:48;;;;;;;5.40;4.07;;;22.10;60.40;;;;;;4996210;28;20096;-65
2021/07/23 15:20:14;;;;;;;5.93;3.72;;;22.10;60.80;;;;;;4984005;28;20062;-65
2021/07/23 15:22:40;;;;;;;6.82;3.67;;;22.10;60.90;;;;;;4997400;28;20038;-65
2021/07/23 15:25:06;;;;;;;8.10;4.88;;;22.10;61.00;;;;;;4997308;28;20065;-65
2021/07/23 15:27:34;;;;;;;7.00;4.60;;;22.00;61.30;;;;;;4998224;28;20045;-65
2021/07/23 15:30:00;;;;;;;5.82;3.80;;;21.90;62.30;;;;;;4998783;28;20064;-66